sensor_id;sensor_type;location;lat;lon;timestamp;temperature;humidity
4964;DHT22;2497;47.410;9.740;2023-08-30T00:01:11;11.70;99.90
4964;DHT22;2497;47.410;9.740;2023-08-30T00:03:38;11.70;99.90
4964;DHT22;2497;47.410;9.740;2023-08-30T00:06:07;11.70;99.90
4964;DHT22;2497;47.410;9.740;2023-08-30T00:08:34;11.60;99.90
4964;DHT22;2497;47.410;9.740;2023-08-30T00:11:02;11.50;99.90
4964;DHT22;2497;47.410;9.740;2023-08-30T00:13:30;11.60;99.90
4964;DHT22;2497;47.410;9.740;2023-08-30T00:15:57;11.60;99.90
4964;DHT22;2497;47.410;9.740;2023-08-30T00:18:25;11.60;99.90
4964;DHT22;2497;47.410;9.740;2023-08-30T00:20:52;11.60;99.90
4964;DHT22;2497;47.410;9.740;2023-08-30T00:23:21;11.50;99.90
4964;DHT22;2497;47.410;9.740;2023-08-30T00:25:48;11.60;99.90
4964;DHT22;2497;47.410;9.740;2023-08-30T00:28:15;11.60;99.90
4964;DHT22;2497;47.410;9.740;2023-08-30T00:30:42;11.70;99.90
4964;DHT22;2497;47.410;9.740;2023-08-30T00:33:09;11.70;99.90
4964;DHT22;2497;47.410;9.740;2023-08-30T00:35:36;11.70;99.90
4964;DHT22;2497;47.410;9.740;2023-08-30T00:38:03;11.80;99.90
4964;DHT22;2497;47.410;9.740;2023-08-30T00:40:38;11.80;99.90
4964;DHT22;2497;47.410;9.740;2023-08-30T00:43:07;11.70;99.90
4964;DHT22;2497;47.410;9.740;2023-08-30T00:45:34;11.70;99.90
4964;DHT22;2497;47.410;9.740;2023-08-30T00:48:05;11.70;99.90
4964;DHT22;2497;47.410;9.740;2023-08-30T00:50:40;11.70;99.90
4964;DHT22;2497;47.410;9.740;2023-08-30T00:53:07;11.70;99.90
4964;DHT22;2497;47.410;9.740;2023-08-30T00:55:35;11.60;99.90
4964;DHT22;2497;47.410;9.740;2023-08-30T00:58:05;11.70;99.90
4964;DHT22;2497;47.410;9.740;2023-08-30T01:00:33;11.60;99.90
4964;DHT22;2497;47.410;9.740;2023-08-30T01:03:00;11.60;99.90
4964;DHT22;2497;47.410;9.740;2023-08-30T01:05:28;11.60;99.90
4964;DHT22;2497;47.410;9.740;2023-08-30T01:07:55;11.60;99.90
4964;DHT22;2497;47.410;9.740;2023-08-30T01:13:30;11.60;99.90
4964;DHT22;2497;47.410;9.740;2023-08-30T01:16:00;11.60;99.90
4964;DHT22;2497;47.410;9.740;2023-08-30T01:18:30;11.60;99.90
4964;DHT22;2497;47.410;9.740;2023-08-30T01:21:00;11.60;99.90
4964;DHT22;2497;47.410;9.740;2023-08-30T01:23:36;11.60;99.90
4964;DHT22;2497;47.410;9.740;2023-08-30T01:26:10;11.60;99.90
4964;DHT22;2497;47.410;9.740;2023-08-30T01:28:44;11.70;99.90
4964;DHT22;2497;47.410;9.740;2023-08-30T01:31:11;11.70;99.90
4964;DHT22;2497;47.410;9.740;2023-08-30T01:33:40;11.70;99.90
4964;DHT22;2497;47.410;9.740;2023-08-30T01:36:08;11.60;99.90
4964;DHT22;2497;47.410;9.740;2023-08-30T01:38:37;11.60;99.90
4964;DHT22;2497;47.410;9.740;2023-08-30T01:41:04;11.60;99.90
4964;DHT22;2497;47.410;9.740;2023-08-30T01:43:32;11.60;99.90
4964;DHT22;2497;47.410;9.740;2023-08-30T01:46:01;11.60;99.90
4964;DHT22;2497;47.410;9.740;2023-08-30T01:48:31;11.60;99.90
4964;DHT22;2497;47.410;9.740;2023-08-30T01:51:00;11.60;99.90
4964;DHT22;2497;47.410;9.740;2023-08-30T01:53:28;11.60;99.90
4964;DHT22;2497;47.410;9.740;2023-08-30T01:55:55;11.60;99.90
4964;DHT22;2497;47.410;9.740;2023-08-30T01:58:22;11.60;99.90
4964;DHT22;2497;47.410;9.740;2023-08-30T02:00:49;11.70;99.90
4964;DHT22;2497;47.410;9.740;2023-08-30T02:03:18;11.70;99.90
4964;DHT22;2497;47.410;9.740;2023-08-30T02:05:52;11.60;99.90
4964;DHT22;2497;47.410;9.740;2023-08-30T02:08:26;11.60;99.90
4964;DHT22;2497;47.410;9.740;2023-08-30T02:10:56;11.60;99.90
4964;DHT22;2497;47.410;9.740;2023-08-30T02:13:27;11.50;99.90
4964;DHT22;2497;47.410;9.740;2023-08-30T02:15:55;11.50;99.90
4964;DHT22;2497;47.410;9.740;2023-08-30T02:18:25;11.50;99.90
4964;DHT22;2497;47.410;9.740;2023-08-30T02:20:53;11.50;99.90
4964;DHT22;2497;47.410;9.740;2023-08-30T02:23:23;11.50;99.90
4964;DHT22;2497;47.410;9.740;2023-08-30T02:25:50;11.50;99.90
4964;DHT22;2497;47.410;9.740;2023-08-30T02:28:17;11.50;99.90
4964;DHT22;2497;47.410;9.740;2023-08-30T02:30:44;11.50;99.90
4964;DHT22;2497;47.410;9.740;2023-08-30T02:33:11;11.50;99.90
4964;DHT22;2497;47.410;9.740;2023-08-30T02:35:40;11.50;99.90
4964;DHT22;2497;47.410;9.740;2023-08-30T02:38:07;11.50;99.90
4964;DHT22;2497;47.410;9.740;2023-08-30T02:40:34;11.50;99.90
4964;DHT22;2497;47.410;9.740;2023-08-30T02:43:01;11.50;99.90
4964;DHT22;2497;47.410;9.740;2023-08-30T02:45:29;11.50;99.90
4964;DHT22;2497;47.410;9.740;2023-08-30T02:47:56;11.40;99.90
4964;DHT22;2497;47.410;9.740;2023-08-30T02:50:23;11.40;99.90
4964;DHT22;2497;47.410;9.740;2023-08-30T02:52:52;11.40;99.90
4964;DHT22;2497;47.410;9.740;2023-08-30T02:55:19;11.40;99.90
4964;DHT22;2497;47.410;9.740;2023-08-30T02:57:46;11.40;99.90
4964;DHT22;2497;47.410;9.740;2023-08-30T03:00:14;11.50;99.90
4964;DHT22;2497;47.410;9.740;2023-08-30T03:02:41;11.50;99.90
4964;DHT22;2497;47.410;9.740;2023-08-30T03:05:08;11.60;99.90
4964;DHT22;2497;47.410;9.740;2023-08-30T03:07:37;11.50;99.90
4964;DHT22;2497;47.410;9.740;2023-08-30T03:10:07;11.50;99.90
4964;DHT22;2497;47.410;9.740;2023-08-30T03:12:37;11.50;99.90
4964;DHT22;2497;47.410;9.740;2023-08-30T03:15:05;11.40;99.90
4964;DHT22;2497;47.410;9.740;2023-08-30T03:17:32;11.60;99.90
4964;DHT22;2497;47.410;9.740;2023-08-30T03:19:59;11.60;99.90
4964;DHT22;2497;47.410;9.740;2023-08-30T03:22:29;11.50;99.90
4964;DHT22;2497;47.410;9.740;2023-08-30T03:24:57;11.50;99.90
4964;DHT22;2497;47.410;9.740;2023-08-30T03:27:25;11.40;99.90
4964;DHT22;2497;47.410;9.740;2023-08-30T03:29:54;11.40;99.90
4964;DHT22;2497;47.410;9.740;2023-08-30T03:32:22;11.50;99.90
4964;DHT22;2497;47.410;9.740;2023-08-30T03:34:49;11.40;99.90
4964;DHT22;2497;47.410;9.740;2023-08-30T03:37:17;11.50;99.90
4964;DHT22;2497;47.410;9.740;2023-08-30T03:39:44;11.50;99.90
4964;DHT22;2497;47.410;9.740;2023-08-30T03:42:11;11.60;99.90
4964;DHT22;2497;47.410;9.740;2023-08-30T03:44:39;11.70;99.90
4964;DHT22;2497;47.410;9.740;2023-08-30T03:47:06;11.60;99.90
4964;DHT22;2497;47.410;9.740;2023-08-30T03:49:33;11.60;99.90
4964;DHT22;2497;47.410;9.740;2023-08-30T03:52:05;11.50;99.90
4964;DHT22;2497;47.410;9.740;2023-08-30T03:54:35;11.50;99.90
4964;DHT22;2497;47.410;9.740;2023-08-30T03:57:02;11.50;99.90
4964;DHT22;2497;47.410;9.740;2023-08-30T03:59:29;11.40;99.90
4964;DHT22;2497;47.410;9.740;2023-08-30T04:01:58;11.50;99.90
4964;DHT22;2497;47.410;9.740;2023-08-30T04:04:26;11.50;99.90
4964;DHT22;2497;47.410;9.740;2023-08-30T04:06:53;11.50;99.90
4964;DHT22;2497;47.410;9.740;2023-08-30T04:09:20;11.40;99.90
4964;DHT22;2497;47.410;9.740;2023-08-30T04:11:48;11.50;99.90
4964;DHT22;2497;47.410;9.740;2023-08-30T04:14:15;11.50;99.90
4964;DHT22;2497;47.410;9.740;2023-08-30T04:16:42;11.40;99.90
4964;DHT22;2497;47.410;9.740;2023-08-30T04:19:10;11.50;99.90
4964;DHT22;2497;47.410;9.740;2023-08-30T04:21:44;11.40;99.90
4964;DHT22;2497;47.410;9.740;2023-08-30T04:24:14;11.40;99.90
4964;DHT22;2497;47.410;9.740;2023-08-30T04:26:42;11.40;99.90
4964;DHT22;2497;47.410;9.740;2023-08-30T04:29:09;11.40;99.90
4964;DHT22;2497;47.410;9.740;2023-08-30T04:31:36;11.40;99.90
4964;DHT22;2497;47.410;9.740;2023-08-30T04:34:04;11.40;99.90
4964;DHT22;2497;47.410;9.740;2023-08-30T04:36:33;11.40;99.90
4964;DHT22;2497;47.410;9.740;2023-08-30T04:39:00;11.40;99.90
4964;DHT22;2497;47.410;9.740;2023-08-30T04:41:28;11.40;99.90
4964;DHT22;2497;47.410;9.740;2023-08-30T04:43:55;11.40;99.90
4964;DHT22;2497;47.410;9.740;2023-08-30T04:46:22;11.40;99.90
4964;DHT22;2497;47.410;9.740;2023-08-30T04:48:49;11.40;99.90
4964;DHT22;2497;47.410;9.740;2023-08-30T04:51:16;11.40;99.90
4964;DHT22;2497;47.410;9.740;2023-08-30T04:53:44;11.30;99.90
4964;DHT22;2497;47.410;9.740;2023-08-30T04:56:12;11.40;99.90
4964;DHT22;2497;47.410;9.740;2023-08-30T04:58:39;11.40;99.90
4964;DHT22;2497;47.410;9.740;2023-08-30T05:01:06;11.30;99.90
4964;DHT22;2497;47.410;9.740;2023-08-30T05:03:34;11.30;99.90
4964;DHT22;2497;47.410;9.740;2023-08-30T05:06:02;11.30;99.90
4964;DHT22;2497;47.410;9.740;2023-08-30T05:08:29;11.40;99.90
4964;DHT22;2497;47.410;9.740;2023-08-30T05:11:00;11.40;99.90
4964;DHT22;2497;47.410;9.740;2023-08-30T05:13:28;11.40;99.90
4964;DHT22;2497;47.410;9.740;2023-08-30T05:15:55;11.50;99.90
4964;DHT22;2497;47.410;9.740;2023-08-30T05:18:22;11.50;99.90
4964;DHT22;2497;47.410;9.740;2023-08-30T05:20:50;11.50;99.90
4964;DHT22;2497;47.410;9.740;2023-08-30T05:23:17;11.60;99.90
4964;DHT22;2497;47.410;9.740;2023-08-30T05:25:44;11.70;99.90
4964;DHT22;2497;47.410;9.740;2023-08-30T05:28:13;11.70;99.90
4964;DHT22;2497;47.410;9.740;2023-08-30T05:30:42;11.70;99.90
4964;DHT22;2497;47.410;9.740;2023-08-30T05:33:10;11.70;99.90
4964;DHT22;2497;47.410;9.740;2023-08-30T05:35:37;11.80;99.90
4964;DHT22;2497;47.410;9.740;2023-08-30T05:38:04;11.80;99.90
4964;DHT22;2497;47.410;9.740;2023-08-30T05:40:31;11.70;99.90
4964;DHT22;2497;47.410;9.740;2023-08-30T05:42:58;11.80;99.90
4964;DHT22;2497;47.410;9.740;2023-08-30T05:45:27;11.80;99.90
4964;DHT22;2497;47.410;9.740;2023-08-30T05:47:54;11.80;99.90
4964;DHT22;2497;47.410;9.740;2023-08-30T05:50:21;11.80;99.90
4964;DHT22;2497;47.410;9.740;2023-08-30T05:52:48;11.80;99.90
4964;DHT22;2497;47.410;9.740;2023-08-30T05:55:26;11.80;99.90
4964;DHT22;2497;47.410;9.740;2023-08-30T05:57:53;11.80;99.90
4964;DHT22;2497;47.410;9.740;2023-08-30T06:00:20;11.80;99.90
4964;DHT22;2497;47.410;9.740;2023-08-30T06:02:49;11.80;99.90
4964;DHT22;2497;47.410;9.740;2023-08-30T06:05:17;11.80;99.90
4964;DHT22;2497;47.410;9.740;2023-08-30T06:07:44;11.90;99.90
4964;DHT22;2497;47.410;9.740;2023-08-30T06:10:12;11.90;99.90
4964;DHT22;2497;47.410;9.740;2023-08-30T06:12:39;12.00;99.90
4964;DHT22;2497;47.410;9.740;2023-08-30T06:15:07;12.00;99.90
4964;DHT22;2497;47.410;9.740;2023-08-30T06:17:34;12.00;99.90
4964;DHT22;2497;47.410;9.740;2023-08-30T06:20:03;12.10;99.90
4964;DHT22;2497;47.410;9.740;2023-08-30T06:22:30;12.10;99.90
4964;DHT22;2497;47.410;9.740;2023-08-30T06:24:57;12.20;99.90
4964;DHT22;2497;47.410;9.740;2023-08-30T06:27:24;12.20;99.90
4964;DHT22;2497;47.410;9.740;2023-08-30T06:29:51;12.20;99.90
4964;DHT22;2497;47.410;9.740;2023-08-30T06:32:18;12.30;99.90
4964;DHT22;2497;47.410;9.740;2023-08-30T06:34:45;12.40;99.90
4964;DHT22;2497;47.410;9.740;2023-08-30T06:37:14;12.40;99.90
4964;DHT22;2497;47.410;9.740;2023-08-30T06:39:41;12.40;99.90
4964;DHT22;2497;47.410;9.740;2023-08-30T06:42:08;12.60;99.90
4964;DHT22;2497;47.410;9.740;2023-08-30T06:44:35;12.60;99.90
4964;DHT22;2497;47.410;9.740;2023-08-30T06:47:02;12.70;99.90
4964;DHT22;2497;47.410;9.740;2023-08-30T06:49:29;12.80;99.90
4964;DHT22;2497;47.410;9.740;2023-08-30T06:51:57;12.70;99.90
4964;DHT22;2497;47.410;9.740;2023-08-30T06:54:26;12.80;99.90
4964;DHT22;2497;47.410;9.740;2023-08-30T06:57:00;12.90;99.90
4964;DHT22;2497;47.410;9.740;2023-08-30T06:59:27;12.90;99.90
4964;DHT22;2497;47.410;9.740;2023-08-30T07:01:54;13.00;99.90
4964;DHT22;2497;47.410;9.740;2023-08-30T07:04:21;13.00;99.90
4964;DHT22;2497;47.410;9.740;2023-08-30T07:06:48;13.20;99.90
4964;DHT22;2497;47.410;9.740;2023-08-30T07:09:16;13.10;99.90
4964;DHT22;2497;47.410;9.740;2023-08-30T07:11:45;13.40;99.90
4964;DHT22;2497;47.410;9.740;2023-08-30T07:14:12;13.50;99.90
4964;DHT22;2497;47.410;9.740;2023-08-30T07:16:40;14.10;99.90
4964;DHT22;2497;47.410;9.740;2023-08-30T07:19:07;14.10;99.90
4964;DHT22;2497;47.410;9.740;2023-08-30T07:21:35;14.00;99.90
4964;DHT22;2497;47.410;9.740;2023-08-30T07:24:05;14.20;99.90
4964;DHT22;2497;47.410;9.740;2023-08-30T07:26:33;14.50;99.90
4964;DHT22;2497;47.410;9.740;2023-08-30T07:29:01;14.40;99.90
4964;DHT22;2497;47.410;9.740;2023-08-30T07:31:30;14.50;99.90
4964;DHT22;2497;47.410;9.740;2023-08-30T07:33:57;14.60;99.90
4964;DHT22;2497;47.410;9.740;2023-08-30T07:36:25;14.60;99.90
4964;DHT22;2497;47.410;9.740;2023-08-30T07:38:52;14.40;99.90
4964;DHT22;2497;47.410;9.740;2023-08-30T07:41:19;14.10;99.90
4964;DHT22;2497;47.410;9.740;2023-08-30T07:43:46;13.90;99.90
4964;DHT22;2497;47.410;9.740;2023-08-30T07:46:15;13.70;99.90
4964;DHT22;2497;47.410;9.740;2023-08-30T07:48:42;13.60;99.90
4964;DHT22;2497;47.410;9.740;2023-08-30T07:51:09;13.50;99.90
4964;DHT22;2497;47.410;9.740;2023-08-30T07:53:36;13.40;99.90
4964;DHT22;2497;47.410;9.740;2023-08-30T07:56:03;13.40;99.90
4964;DHT22;2497;47.410;9.740;2023-08-30T07:58:30;13.30;99.90
4964;DHT22;2497;47.410;9.740;2023-08-30T08:00:57;13.20;99.90
4964;DHT22;2497;47.410;9.740;2023-08-30T08:03:25;13.10;99.90
4964;DHT22;2497;47.410;9.740;2023-08-30T08:05:52;13.10;99.90
4964;DHT22;2497;47.410;9.740;2023-08-30T08:08:19;13.30;99.90
4964;DHT22;2497;47.410;9.740;2023-08-30T08:10:46;14.20;99.90
4964;DHT22;2497;47.410;9.740;2023-08-30T08:13:13;15.10;99.90
4964;DHT22;2497;47.410;9.740;2023-08-30T08:15:40;15.80;99.90
4964;DHT22;2497;47.410;9.740;2023-08-30T08:18:09;15.20;99.90
4964;DHT22;2497;47.410;9.740;2023-08-30T08:20:37;15.40;99.90
4964;DHT22;2497;47.410;9.740;2023-08-30T08:23:05;15.80;99.90
4964;DHT22;2497;47.410;9.740;2023-08-30T08:25:32;16.00;99.90
4964;DHT22;2497;47.410;9.740;2023-08-30T08:27:59;16.80;99.90
4964;DHT22;2497;47.410;9.740;2023-08-30T08:30:26;17.20;99.90
4964;DHT22;2497;47.410;9.740;2023-08-30T08:32:53;17.60;99.90
4964;DHT22;2497;47.410;9.740;2023-08-30T08:35:21;18.00;99.90
4964;DHT22;2497;47.410;9.740;2023-08-30T08:37:50;18.40;99.90
4964;DHT22;2497;47.410;9.740;2023-08-30T08:40:17;17.60;99.90
4964;DHT22;2497;47.410;9.740;2023-08-30T08:42:45;17.70;99.90
4964;DHT22;2497;47.410;9.740;2023-08-30T08:45:13;17.70;99.90
4964;DHT22;2497;47.410;9.740;2023-08-30T08:47:43;17.10;99.90
4964;DHT22;2497;47.410;9.740;2023-08-30T08:50:11;17.50;99.90
4964;DHT22;2497;47.410;9.740;2023-08-30T08:52:39;17.50;99.90
4964;DHT22;2497;47.410;9.740;2023-08-30T08:55:08;18.10;99.90
4964;DHT22;2497;47.410;9.740;2023-08-30T08:57:38;18.10;99.90
4964;DHT22;2497;47.410;9.740;2023-08-30T09:00:08;17.90;99.90
4964;DHT22;2497;47.410;9.740;2023-08-30T09:02:36;18.40;99.90
4964;DHT22;2497;47.410;9.740;2023-08-30T09:05:03;18.10;99.90
4964;DHT22;2497;47.410;9.740;2023-08-30T09:07:31;19.00;99.90
4964;DHT22;2497;47.410;9.740;2023-08-30T09:09:59;19.30;99.90
4964;DHT22;2497;47.410;9.740;2023-08-30T09:12:32;19.50;99.90
4964;DHT22;2497;47.410;9.740;2023-08-30T09:14:59;19.30;99.90
4964;DHT22;2497;47.410;9.740;2023-08-30T09:17:35;19.30;99.90
4964;DHT22;2497;47.410;9.740;2023-08-30T09:20:07;18.60;99.90
4964;DHT22;2497;47.410;9.740;2023-08-30T09:22:38;17.80;99.90
4964;DHT22;2497;47.410;9.740;2023-08-30T09:25:08;17.60;99.90
4964;DHT22;2497;47.410;9.740;2023-08-30T09:27:36;18.50;99.90
4964;DHT22;2497;47.410;9.740;2023-08-30T09:30:08;19.10;99.90
4964;DHT22;2497;47.410;9.740;2023-08-30T09:32:40;18.80;99.90
4964;DHT22;2497;47.410;9.740;2023-08-30T09:35:08;18.60;99.90
4964;DHT22;2497;47.410;9.740;2023-08-30T09:37:35;19.00;99.90
4964;DHT22;2497;47.410;9.740;2023-08-30T09:40:03;18.90;99.90
4964;DHT22;2497;47.410;9.740;2023-08-30T09:42:31;19.60;99.90
4964;DHT22;2497;47.410;9.740;2023-08-30T09:44:59;19.80;99.90
4964;DHT22;2497;47.410;9.740;2023-08-30T09:47:27;19.60;99.90
4964;DHT22;2497;47.410;9.740;2023-08-30T09:49:56;19.30;99.90
4964;DHT22;2497;47.410;9.740;2023-08-30T09:52:26;19.30;99.90
4964;DHT22;2497;47.410;9.740;2023-08-30T09:54:54;19.20;99.90
4964;DHT22;2497;47.410;9.740;2023-08-30T09:57:23;19.30;99.90
4964;DHT22;2497;47.410;9.740;2023-08-30T09:59:50;19.10;99.90
4964;DHT22;2497;47.410;9.740;2023-08-30T10:02:19;19.40;99.90
4964;DHT22;2497;47.410;9.740;2023-08-30T10:04:48;19.50;99.90
4964;DHT22;2497;47.410;9.740;2023-08-30T10:07:16;19.40;99.90
4964;DHT22;2497;47.410;9.740;2023-08-30T10:09:44;19.40;99.90
4964;DHT22;2497;47.410;9.740;2023-08-30T10:12:12;20.10;99.90
4964;DHT22;2497;47.410;9.740;2023-08-30T10:14:40;20.20;99.90
4964;DHT22;2497;47.410;9.740;2023-08-30T10:17:09;20.00;99.90
4964;DHT22;2497;47.410;9.740;2023-08-30T10:19:41;20.00;99.90
4964;DHT22;2497;47.410;9.740;2023-08-30T10:22:10;20.70;99.90
4964;DHT22;2497;47.410;9.740;2023-08-30T10:24:43;20.80;99.90
4964;DHT22;2497;47.410;9.740;2023-08-30T10:27:12;20.70;99.90
4964;DHT22;2497;47.410;9.740;2023-08-30T10:29:41;20.80;99.90
4964;DHT22;2497;47.410;9.740;2023-08-30T10:32:09;20.60;99.90
4964;DHT22;2497;47.410;9.740;2023-08-30T10:34:36;20.40;99.90
4964;DHT22;2497;47.410;9.740;2023-08-30T10:37:08;20.30;99.90
4964;DHT22;2497;47.410;9.740;2023-08-30T10:39:37;20.60;99.90
4964;DHT22;2497;47.410;9.740;2023-08-30T10:42:09;20.90;99.90
4964;DHT22;2497;47.410;9.740;2023-08-30T10:44:46;20.70;99.90
4964;DHT22;2497;47.410;9.740;2023-08-30T10:47:18;20.90;99.90
4964;DHT22;2497;47.410;9.740;2023-08-30T10:49:47;21.10;99.90
4964;DHT22;2497;47.410;9.740;2023-08-30T10:52:16;21.20;99.90
4964;DHT22;2497;47.410;9.740;2023-08-30T10:54:43;21.30;99.90
4964;DHT22;2497;47.410;9.740;2023-08-30T10:57:14;20.90;99.90
4964;DHT22;2497;47.410;9.740;2023-08-30T11:00:04;20.60;99.90
4964;DHT22;2497;47.410;9.740;2023-08-30T11:02:33;20.30;99.90
4964;DHT22;2497;47.410;9.740;2023-08-30T11:05:00;19.80;99.90
4964;DHT22;2497;47.410;9.740;2023-08-30T11:07:30;19.80;99.90
4964;DHT22;2497;47.410;9.740;2023-08-30T11:09:57;19.50;99.90
4964;DHT22;2497;47.410;9.740;2023-08-30T11:12:24;19.30;99.90
4964;DHT22;2497;47.410;9.740;2023-08-30T11:14:53;19.10;99.90
4964;DHT22;2497;47.410;9.740;2023-08-30T11:17:21;19.10;99.90
4964;DHT22;2497;47.410;9.740;2023-08-30T11:19:50;19.30;99.90
4964;DHT22;2497;47.410;9.740;2023-08-30T11:22:18;19.40;99.90
4964;DHT22;2497;47.410;9.740;2023-08-30T11:24:49;19.50;99.90
4964;DHT22;2497;47.410;9.740;2023-08-30T11:27:17;19.20;99.90
4964;DHT22;2497;47.410;9.740;2023-08-30T11:29:44;19.30;99.90
4964;DHT22;2497;47.410;9.740;2023-08-30T11:32:11;19.80;99.90
4964;DHT22;2497;47.410;9.740;2023-08-30T11:34:38;20.40;99.90
4964;DHT22;2497;47.410;9.740;2023-08-30T11:37:05;20.00;99.90
4964;DHT22;2497;47.410;9.740;2023-08-30T11:39:32;20.00;99.90
4964;DHT22;2497;47.410;9.740;2023-08-30T11:42:03;19.50;99.90
4964;DHT22;2497;47.410;9.740;2023-08-30T11:44:32;19.40;99.90
4964;DHT22;2497;47.410;9.740;2023-08-30T11:46:59;19.00;99.90
4964;DHT22;2497;47.410;9.740;2023-08-30T11:49:27;19.00;99.90
4964;DHT22;2497;47.410;9.740;2023-08-30T11:51:55;19.40;99.90
4964;DHT22;2497;47.410;9.740;2023-08-30T11:54:24;19.80;99.90
4964;DHT22;2497;47.410;9.740;2023-08-30T11:56:51;20.20;99.90
4964;DHT22;2497;47.410;9.740;2023-08-30T11:59:20;20.50;99.90
4964;DHT22;2497;47.410;9.740;2023-08-30T12:01:48;20.70;99.90
4964;DHT22;2497;47.410;9.740;2023-08-30T12:04:15;21.40;99.90
4964;DHT22;2497;47.410;9.740;2023-08-30T12:06:44;21.50;99.90
4964;DHT22;2497;47.410;9.740;2023-08-30T12:09:12;21.20;99.90
4964;DHT22;2497;47.410;9.740;2023-08-30T12:11:39;21.70;99.90
4964;DHT22;2497;47.410;9.740;2023-08-30T12:14:06;22.30;99.90
4964;DHT22;2497;47.410;9.740;2023-08-30T12:16:34;22.50;99.90
4964;DHT22;2497;47.410;9.740;2023-08-30T12:19:08;22.80;99.90
4964;DHT22;2497;47.410;9.740;2023-08-30T12:21:40;22.80;99.90
4964;DHT22;2497;47.410;9.740;2023-08-30T12:24:07;22.40;99.90
4964;DHT22;2497;47.410;9.740;2023-08-30T12:26:34;22.30;99.90
4964;DHT22;2497;47.410;9.740;2023-08-30T12:29:04;22.40;99.90
4964;DHT22;2497;47.410;9.740;2023-08-30T12:31:32;22.40;99.90
4964;DHT22;2497;47.410;9.740;2023-08-30T12:34:00;22.40;99.90
4964;DHT22;2497;47.410;9.740;2023-08-30T12:36:27;22.50;99.90
4964;DHT22;2497;47.410;9.740;2023-08-30T12:38:55;22.20;99.90
4964;DHT22;2497;47.410;9.740;2023-08-30T12:41:23;22.10;99.90
4964;DHT22;2497;47.410;9.740;2023-08-30T12:43:50;22.10;99.90
4964;DHT22;2497;47.410;9.740;2023-08-30T12:46:20;22.30;99.90
4964;DHT22;2497;47.410;9.740;2023-08-30T12:48:47;21.80;99.90
4964;DHT22;2497;47.410;9.740;2023-08-30T12:51:16;21.70;99.90
4964;DHT22;2497;47.410;9.740;2023-08-30T12:53:43;21.70;99.90
4964;DHT22;2497;47.410;9.740;2023-08-30T12:56:10;21.70;99.90
4964;DHT22;2497;47.410;9.740;2023-08-30T12:58:37;21.10;99.90
4964;DHT22;2497;47.410;9.740;2023-08-30T13:01:04;20.80;99.90
4964;DHT22;2497;47.410;9.740;2023-08-30T13:03:31;20.80;99.90
4964;DHT22;2497;47.410;9.740;2023-08-30T13:05:58;20.50;99.90
4964;DHT22;2497;47.410;9.740;2023-08-30T13:08:27;20.10;99.90
4964;DHT22;2497;47.410;9.740;2023-08-30T13:10:54;19.70;99.90
4964;DHT22;2497;47.410;9.740;2023-08-30T13:13:22;19.50;99.90
4964;DHT22;2497;47.410;9.740;2023-08-30T13:15:49;19.50;99.90
4964;DHT22;2497;47.410;9.740;2023-08-30T13:18:16;19.30;99.90
4964;DHT22;2497;47.410;9.740;2023-08-30T13:20:44;19.20;99.90
4964;DHT22;2497;47.410;9.740;2023-08-30T13:23:12;19.10;99.90
4964;DHT22;2497;47.410;9.740;2023-08-30T13:25:41;18.90;99.90
4964;DHT22;2497;47.410;9.740;2023-08-30T13:28:09;18.80;99.90
4964;DHT22;2497;47.410;9.740;2023-08-30T13:30:43;18.90;99.90
4964;DHT22;2497;47.410;9.740;2023-08-30T13:33:11;18.80;99.90
4964;DHT22;2497;47.410;9.740;2023-08-30T13:35:39;18.70;99.90
4964;DHT22;2497;47.410;9.740;2023-08-30T13:38:07;18.80;99.90
4964;DHT22;2497;47.410;9.740;2023-08-30T13:40:34;18.80;99.90
4964;DHT22;2497;47.410;9.740;2023-08-30T13:43:04;18.80;99.90
4964;DHT22;2497;47.410;9.740;2023-08-30T13:45:31;18.80;99.90
4964;DHT22;2497;47.410;9.740;2023-08-30T13:47:59;18.80;99.90
4964;DHT22;2497;47.410;9.740;2023-08-30T13:50:28;19.10;99.90
4964;DHT22;2497;47.410;9.740;2023-08-30T13:52:58;19.50;99.90
4964;DHT22;2497;47.410;9.740;2023-08-30T13:55:26;19.50;99.90
4964;DHT22;2497;47.410;9.740;2023-08-30T13:57:55;19.10;99.90
4964;DHT22;2497;47.410;9.740;2023-08-30T14:00:25;19.10;99.90
4964;DHT22;2497;47.410;9.740;2023-08-30T14:02:53;19.20;99.90
4964;DHT22;2497;47.410;9.740;2023-08-30T14:05:20;19.10;99.90
4964;DHT22;2497;47.410;9.740;2023-08-30T14:07:48;18.90;99.90
4964;DHT22;2497;47.410;9.740;2023-08-30T14:10:15;19.00;99.90
4964;DHT22;2497;47.410;9.740;2023-08-30T14:12:44;18.80;99.90
4964;DHT22;2497;47.410;9.740;2023-08-30T14:15:12;18.70;99.90
4964;DHT22;2497;47.410;9.740;2023-08-30T14:17:42;18.60;99.90
4964;DHT22;2497;47.410;9.740;2023-08-30T14:20:10;18.50;99.90
4964;DHT22;2497;47.410;9.740;2023-08-30T14:22:37;18.40;99.90
4964;DHT22;2497;47.410;9.740;2023-08-30T14:25:05;18.50;99.90
4964;DHT22;2497;47.410;9.740;2023-08-30T14:27:33;18.40;99.90
4964;DHT22;2497;47.410;9.740;2023-08-30T14:30:01;18.30;99.90
4964;DHT22;2497;47.410;9.740;2023-08-30T14:32:29;18.10;99.90
4964;DHT22;2497;47.410;9.740;2023-08-30T14:34:58;18.30;99.90
4964;DHT22;2497;47.410;9.740;2023-08-30T14:37:26;18.50;99.90
4964;DHT22;2497;47.410;9.740;2023-08-30T14:39:54;18.70;99.90
4964;DHT22;2497;47.410;9.740;2023-08-30T14:42:25;19.00;99.90
4964;DHT22;2497;47.410;9.740;2023-08-30T14:44:53;19.20;99.90
4964;DHT22;2497;47.410;9.740;2023-08-30T14:47:22;19.40;99.90
4964;DHT22;2497;47.410;9.740;2023-08-30T14:49:51;19.20;99.90
4964;DHT22;2497;47.410;9.740;2023-08-30T14:52:22;19.20;99.90
4964;DHT22;2497;47.410;9.740;2023-08-30T14:54:53;19.30;99.90
4964;DHT22;2497;47.410;9.740;2023-08-30T14:57:22;19.10;99.90
4964;DHT22;2497;47.410;9.740;2023-08-30T14:59:51;19.00;99.90
4964;DHT22;2497;47.410;9.740;2023-08-30T15:02:20;18.90;99.90
4964;DHT22;2497;47.410;9.740;2023-08-30T15:04:49;18.70;99.90
4964;DHT22;2497;47.410;9.740;2023-08-30T15:07:18;18.40;99.90
4964;DHT22;2497;47.410;9.740;2023-08-30T15:09:48;18.40;99.90
4964;DHT22;2497;47.410;9.740;2023-08-30T15:12:17;18.30;99.90
4964;DHT22;2497;47.410;9.740;2023-08-30T15:14:46;18.40;99.90
4964;DHT22;2497;47.410;9.740;2023-08-30T15:17:15;18.40;99.90
4964;DHT22;2497;47.410;9.740;2023-08-30T15:19:43;18.50;99.90
4964;DHT22;2497;47.410;9.740;2023-08-30T15:22:12;18.60;99.90
4964;DHT22;2497;47.410;9.740;2023-08-30T15:24:41;18.50;99.90
4964;DHT22;2497;47.410;9.740;2023-08-30T15:27:11;18.50;99.90
4964;DHT22;2497;47.410;9.740;2023-08-30T15:29:40;18.40;99.90
4964;DHT22;2497;47.410;9.740;2023-08-30T15:32:09;18.40;99.90
4964;DHT22;2497;47.410;9.740;2023-08-30T15:34:38;18.30;99.90
4964;DHT22;2497;47.410;9.740;2023-08-30T15:37:06;18.30;99.90
4964;DHT22;2497;47.410;9.740;2023-08-30T15:39:40;18.30;99.90
4964;DHT22;2497;47.410;9.740;2023-08-30T15:42:10;18.20;99.90
4964;DHT22;2497;47.410;9.740;2023-08-30T15:44:39;18.20;99.90
4964;DHT22;2497;47.410;9.740;2023-08-30T15:47:07;18.40;99.90
4964;DHT22;2497;47.410;9.740;2023-08-30T15:49:36;18.50;99.90
4964;DHT22;2497;47.410;9.740;2023-08-30T15:52:06;18.60;99.90
4964;DHT22;2497;47.410;9.740;2023-08-30T15:54:35;18.60;99.90
4964;DHT22;2497;47.410;9.740;2023-08-30T15:57:04;18.50;99.90
4964;DHT22;2497;47.410;9.740;2023-08-30T15:59:34;18.60;99.90
4964;DHT22;2497;47.410;9.740;2023-08-30T16:02:03;18.50;99.90
4964;DHT22;2497;47.410;9.740;2023-08-30T16:04:32;18.50;99.90
4964;DHT22;2497;47.410;9.740;2023-08-30T16:07:03;18.40;99.90
4964;DHT22;2497;47.410;9.740;2023-08-30T16:09:36;18.30;99.90
4964;DHT22;2497;47.410;9.740;2023-08-30T16:12:06;18.30;99.90